createdAt,value
2022-11-28T00:02:34.340Z,3.40
2022-11-28T00:05:10.519Z,3.30
2022-11-28T00:07:45.270Z,3.20
2022-11-28T00:10:24.564Z,3.60
2022-11-28T00:12:57.937Z,3.10
2022-11-28T00:15:36.238Z,3.30
2022-11-28T00:18:12.298Z,3.63
2022-11-28T00:20:45.917Z,3.72
2022-11-28T00:23:16.371Z,3.13
2022-11-28T00:25:47.066Z,4.05
2022-11-28T00:28:20.431Z,2.97
2022-11-28T00:30:58.554Z,3.40
2022-11-28T00:33:30.826Z,3.13
2022-11-28T00:36:00.785Z,3.80
2022-11-28T00:38:32.981Z,3.50
2022-11-28T00:41:07.530Z,3.47
2022-11-28T00:43:40.709Z,3.28
2022-11-28T00:46:12.852Z,3.40
2022-11-28T00:48:47.407Z,3.22
2022-11-28T00:51:27.945Z,3.63
2022-11-28T00:54:03.094Z,3.85
2022-11-28T00:56:45.549Z,3.30
2022-11-28T00:59:19.710Z,3.38
2022-11-28T01:01:55.412Z,3.42
2022-11-28T01:04:35.843Z,2.97
2022-11-28T01:07:14.558Z,2.90
2022-11-28T01:09:45.770Z,3.03
2022-11-28T01:12:33.606Z,3.17
2022-11-28T01:15:11.081Z,3.38
2022-11-28T01:17:45.076Z,3.80
2022-11-28T01:20:18.096Z,3.28
2022-11-28T01:22:47.154Z,3.70
2022-11-28T01:25:17.352Z,3.55
2022-11-28T01:27:53.628Z,3.78
2022-11-28T01:30:24.639Z,3.40
2022-11-28T01:32:59.060Z,3.97
2022-11-28T01:35:35.257Z,3.80
2022-11-28T01:38:05.599Z,3.33
2022-11-28T01:40:45.287Z,3.58
2022-11-28T01:43:16.181Z,3.90
2022-11-28T01:45:49.120Z,3.95
2022-11-28T01:48:25.211Z,3.80
2022-11-28T01:51:03.468Z,3.58
2022-11-28T01:53:40.462Z,3.90
2022-11-28T01:56:17.428Z,3.83
2022-11-28T01:58:55.083Z,3.65
2022-11-28T02:01:28.140Z,3.85
2022-11-28T02:04:03.167Z,4.10
2022-11-28T02:06:40.732Z,3.70
2022-11-28T02:09:12.972Z,3.80
2022-11-28T02:12:13.647Z,3.67
2022-11-28T02:15:05.235Z,3.80
2022-11-28T02:17:54.063Z,3.88
2022-11-28T02:21:05.622Z,3.60
2022-11-28T02:24:21.516Z,3.75
2022-11-28T02:27:10.549Z,4.00
2022-11-28T02:30:03.871Z,4.07
2022-11-28T02:35:21.216Z,3.55
2022-11-28T02:38:06.236Z,3.30
2022-11-28T02:40:41.615Z,3.50
2022-11-28T02:43:32.285Z,3.53
2022-11-28T02:46:16.974Z,3.40
2022-11-28T02:48:53.386Z,3.75
2022-11-28T02:51:35.788Z,3.22
2022-11-28T02:54:13.034Z,3.40
2022-11-28T02:56:48.389Z,3.60
2022-11-28T02:59:49.122Z,3.47
2022-11-28T03:02:29.369Z,3.70
2022-11-28T03:05:23.559Z,3.80
2022-11-28T03:08:03.013Z,4.07
2022-11-28T03:10:47.193Z,3.78
2022-11-28T03:13:30.734Z,3.65
2022-11-28T03:16:20.539Z,3.60
2022-11-28T03:19:01.753Z,3.13
2022-11-28T03:21:50.895Z,3.90
2022-11-28T03:24:31.867Z,3.90
2022-11-28T03:27:15.935Z,4.28
2022-11-28T03:29:51.077Z,4.20
2022-11-28T03:32:36.144Z,3.70
2022-11-28T03:35:22.661Z,3.60
2022-11-28T03:38:04.608Z,4.03
2022-11-28T03:40:44.456Z,4.00
2022-11-28T03:43:22.580Z,4.03
2022-11-28T03:45:55.650Z,3.90
2022-11-28T03:48:31.100Z,3.63
2022-11-28T03:51:05.346Z,3.90
2022-11-28T03:53:51.188Z,3.60
2022-11-28T03:56:30.164Z,3.78
2022-11-28T03:59:11.956Z,4.57
2022-11-28T04:01:54.511Z,3.97
2022-11-28T04:04:39.576Z,3.67
2022-11-28T04:07:26.149Z,3.55
2022-11-28T04:10:16.496Z,4.10
2022-11-28T04:12:59.262Z,3.85
2022-11-28T04:15:39.112Z,3.67
2022-11-28T04:18:17.918Z,3.55
2022-11-28T04:21:00.765Z,3.50
2022-11-28T04:23:36.212Z,4.07
2022-11-28T04:26:13.891Z,3.80
2022-11-28T04:28:46.741Z,3.75
2022-11-28T04:31:22.868Z,4.03
2022-11-28T04:33:59.249Z,3.47
2022-11-28T04:36:32.994Z,3.28
2022-11-28T04:39:04.318Z,3.53
2022-11-28T04:41:40.089Z,3.90
2022-11-28T04:44:18.417Z,3.72
2022-11-28T04:46:57.795Z,3.85
2022-11-28T04:49:32.404Z,3.80
2022-11-28T04:52:10.256Z,3.63
2022-11-28T04:54:59.206Z,3.92
2022-11-28T04:57:34.085Z,3.72
2022-11-28T05:00:22.901Z,3.80
2022-11-28T05:02:56.838Z,4.07
2022-11-28T05:05:40.415Z,4.47
2022-11-28T05:08:09.714Z,4.00
2022-11-28T05:10:44.776Z,3.70
2022-11-28T05:13:27.662Z,3.80
2022-11-28T05:16:08.951Z,3.83
2022-11-28T05:18:59.072Z,3.45
2022-11-28T05:21:34.312Z,4.10
2022-11-28T05:24:04.643Z,3.67
2022-11-28T05:26:45.359Z,4.47
2022-11-28T05:29:20.758Z,4.40
2022-11-28T05:31:55.286Z,3.72
2022-11-28T05:34:29.620Z,4.05
2022-11-28T05:37:01.234Z,4.68
2022-11-28T05:39:31.539Z,3.95
2022-11-28T05:42:17.076Z,3.83
2022-11-28T05:47:30.036Z,3.60
2022-11-28T05:50:06.473Z,4.10
2022-11-28T05:52:40.538Z,4.20
2022-11-28T05:55:12.176Z,3.45
2022-11-28T05:57:42.294Z,3.85
2022-11-28T06:00:17.976Z,4.13
2022-11-28T06:03:01.289Z,4.22
2022-11-28T06:05:46.232Z,3.80
2022-11-28T06:08:17.876Z,3.80
2022-11-28T06:11:04.797Z,3.53
2022-11-28T06:13:38.404Z,3.80
2022-11-28T06:16:11.369Z,3.97
2022-11-28T06:18:41.687Z,3.58
2022-11-28T06:21:23.777Z,3.47
2022-11-28T06:24:01.950Z,3.67
2022-11-28T06:26:33.799Z,3.50
2022-11-28T06:29:07.073Z,3.88
2022-11-28T06:31:45.898Z,4.85
2022-11-28T06:34:25.599Z,3.63
2022-11-28T06:37:05.076Z,3.30
2022-11-28T06:39:36.085Z,3.47
2022-11-28T06:42:11.050Z,4.47
2022-11-28T06:44:41.193Z,3.75
2022-11-28T06:47:15.586Z,3.80
2022-11-28T06:49:44.548Z,3.72
2022-11-28T06:52:13.630Z,3.55
2022-11-28T06:54:43.948Z,3.13
2022-11-28T06:57:13.835Z,3.53
2022-11-28T06:59:43.533Z,3.70
2022-11-28T07:02:19.893Z,4.07
2022-11-28T07:04:54.473Z,4.22
2022-11-28T07:07:23.957Z,3.72
2022-11-28T07:10:05.799Z,3.92
2022-11-28T07:12:41.526Z,3.47
2022-11-28T07:15:14.939Z,3.40
2022-11-28T07:17:47.079Z,3.65
2022-11-28T07:20:19.085Z,3.28
2022-11-28T07:22:52.795Z,4.00
2022-11-28T07:25:21.861Z,3.70
2022-11-28T07:27:53.980Z,3.65
2022-11-28T07:30:23.649Z,3.42
2022-11-28T07:32:56.764Z,3.80
2022-11-28T07:35:26.392Z,3.60
2022-11-28T07:37:55.043Z,3.35
2022-11-28T07:40:24.446Z,4.03
2022-11-28T07:42:53.161Z,4.40
2022-11-28T07:45:22.884Z,3.70
2022-11-28T07:47:58.254Z,3.65
2022-11-28T07:50:26.957Z,3.55
2022-11-28T07:53:04.151Z,3.75
2022-11-28T07:55:39.757Z,3.88
2022-11-28T07:58:09.117Z,4.70
2022-11-28T08:00:38.896Z,4.20
2022-11-28T08:03:10.174Z,3.95
2022-11-28T08:05:39.181Z,3.55
2022-11-28T08:08:08.884Z,4.45
2022-11-28T08:10:44.365Z,4.05
2022-11-28T08:13:16.270Z,4.20
2022-11-28T08:15:46.135Z,4.88
2022-11-28T08:18:16.714Z,3.92
2022-11-28T08:20:45.572Z,4.35
2022-11-28T08:23:14.862Z,3.75
2022-11-28T08:25:43.929Z,3.88
2022-11-28T08:28:16.471Z,3.83
2022-11-28T08:30:47.075Z,4.03
2022-11-28T08:33:19.013Z,4.18
2022-11-28T08:35:49.023Z,3.70
2022-11-28T08:38:23.777Z,3.65
2022-11-28T08:41:02.610Z,3.28
2022-11-28T08:43:35.242Z,3.22
2022-11-28T08:46:05.032Z,4.00
2022-11-28T08:48:38.017Z,3.60
2022-11-28T08:51:11.893Z,4.18
2022-11-28T08:53:43.989Z,3.60
2022-11-28T08:56:15.910Z,3.78
2022-11-28T08:58:49.063Z,3.63
2022-11-28T09:01:21.369Z,3.67
2022-11-28T09:03:56.330Z,4.15
2022-11-28T09:06:28.949Z,3.50
2022-11-28T09:09:01.973Z,3.47
2022-11-28T09:11:31.439Z,3.47
2022-11-28T09:14:01.195Z,3.25
2022-11-28T09:16:29.707Z,3.60
2022-11-28T09:19:01.877Z,3.78
2022-11-28T09:21:36.129Z,3.60
2022-11-28T09:24:07.122Z,3.63
2022-11-28T09:26:36.868Z,3.55
2022-11-28T09:29:11.869Z,3.83
2022-11-28T09:31:52.430Z,3.90
2022-11-28T09:34:31.328Z,3.50
2022-11-28T09:37:05.148Z,3.17
2022-11-28T09:40:04.814Z,3.75
2022-11-28T09:42:42.083Z,3.42
2022-11-28T09:45:29.989Z,3.85
2022-11-28T09:48:22.668Z,3.45
2022-11-28T09:51:11.543Z,4.05
2022-11-28T09:53:47.430Z,3.72
2022-11-28T09:56:23.121Z,3.75
2022-11-28T09:59:05.382Z,3.95
2022-11-28T10:01:58.685Z,4.00
2022-11-28T10:04:48.007Z,3.73
2022-11-28T10:07:33.595Z,3.58
2022-11-28T10:10:29.107Z,3.70
2022-11-28T10:13:17.260Z,3.80
2022-11-28T10:16:02.653Z,3.30
2022-11-28T10:18:45.260Z,3.60
2022-11-28T10:21:34.876Z,3.47
2022-11-28T10:24:15.406Z,3.17
2022-11-28T10:26:52.341Z,3.60
2022-11-28T10:29:30.300Z,3.60
2022-11-28T10:32:07.411Z,3.83
2022-11-28T10:34:48.643Z,3.63
2022-11-28T10:37:27.437Z,3.75
2022-11-28T10:40:14.471Z,3.50
2022-11-28T10:42:55.930Z,3.45
2022-11-28T10:45:38.962Z,3.00
2022-11-28T10:48:38.952Z,3.40
2022-11-28T10:51:21.585Z,3.47
2022-11-28T10:54:04.954Z,3.80
2022-11-28T10:56:44.279Z,3.50
2022-11-28T10:59:26.932Z,3.47
2022-11-28T11:02:03.813Z,3.35
2022-11-28T11:04:43.333Z,3.38
2022-11-28T11:07:21.794Z,3.33
2022-11-28T11:09:54.577Z,3.78
2022-11-28T11:12:33.772Z,3.95
2022-11-28T11:15:19.264Z,3.78
2022-11-28T11:17:52.652Z,3.90
2022-11-28T11:20:35.011Z,3.85
2022-11-28T11:23:19.256Z,4.35
2022-11-28T11:26:02.969Z,4.20
2022-11-28T11:28:52.703Z,3.65
2022-11-28T11:31:33.531Z,3.60
2022-11-28T11:34:06.985Z,3.88
2022-11-28T11:36:43.361Z,3.78
2022-11-28T11:39:25.658Z,3.70
2022-11-28T11:42:12.784Z,3.55
2022-11-28T11:44:48.137Z,3.50
2022-11-28T11:47:45.615Z,3.85
2022-11-28T11:50:23.205Z,4.45
2022-11-28T11:53:08.159Z,3.88
2022-11-28T11:55:49.833Z,4.60
2022-11-28T11:58:26.282Z,4.03
2022-11-28T12:01:06.033Z,3.90
2022-11-28T12:03:50.597Z,4.05
2022-11-28T12:06:34.452Z,4.05
2022-11-28T12:09:17.395Z,3.95
2022-11-28T12:11:53.597Z,4.45
2022-11-28T12:14:35.403Z,4.10
2022-11-28T12:20:52.332Z,3.58
2022-11-28T12:23:54.523Z,3.65
2022-11-28T12:26:52.379Z,3.88
2022-11-28T12:29:45.283Z,3.60
2022-11-28T12:32:44.056Z,3.28
2022-11-28T12:35:33.404Z,3.72
2022-11-28T12:38:15.808Z,3.85
2022-11-28T12:41:03.663Z,4.50
2022-11-28T12:43:44.116Z,3.75
2022-11-28T12:46:28.987Z,4.53
2022-11-28T12:49:18.040Z,3.78
2022-11-28T12:52:05.754Z,3.78
2022-11-28T12:54:57.860Z,3.55
2022-11-28T12:57:35.186Z,3.40
2022-11-28T13:00:24.148Z,3.88
2022-11-28T13:03:15.275Z,3.28
2022-11-28T13:06:00.288Z,3.28
2022-11-28T13:08:59.915Z,3.35
2022-11-28T13:11:49.899Z,3.00
2022-11-28T13:14:36.390Z,3.22
2022-11-28T13:17:21.777Z,3.60
2022-11-28T13:20:03.762Z,3.60
2022-11-28T13:22:50.273Z,3.38
2022-11-28T13:25:33.476Z,3.22
2022-11-28T13:28:26.453Z,3.80
2022-11-28T13:31:07.454Z,3.22
2022-11-28T13:33:54.475Z,2.92
2022-11-28T13:39:38.725Z,3.15
2022-11-28T13:42:59.521Z,3.00
2022-11-28T13:45:32.254Z,3.03
2022-11-28T13:51:34.100Z,2.92
2022-11-28T13:54:42.522Z,3.20
2022-11-28T13:57:34.530Z,2.80
2022-11-28T14:00:27.749Z,3.00
2022-11-28T14:03:02.398Z,2.60
2022-11-28T14:05:39.157Z,2.90
2022-11-28T14:08:31.539Z,2.83
2022-11-28T14:11:32.644Z,2.60
2022-11-28T14:14:32.035Z,2.38
2022-11-28T14:17:37.231Z,2.53
2022-11-28T14:20:22.534Z,2.53
2022-11-28T14:23:10.257Z,2.45
2022-11-28T14:25:54.097Z,2.55
2022-11-28T14:28:40.814Z,2.55
2022-11-28T14:31:33.735Z,2.28
2022-11-28T14:34:46.240Z,2.63
2022-11-28T14:37:57.772Z,2.53
2022-11-28T14:41:06.831Z,3.33
2022-11-28T14:43:40.521Z,2.80
2022-11-28T14:46:40.832Z,2.80
2022-11-28T14:49:29.574Z,2.80
2022-11-28T14:52:38.990Z,2.78
2022-11-28T14:55:33.357Z,2.95
2022-11-28T14:58:18.012Z,3.20
2022-11-28T15:03:43.787Z,2.90
2022-11-28T15:06:31.968Z,2.63
2022-11-28T15:09:23.835Z,2.88
2022-11-28T15:12:11.968Z,3.20
2022-11-28T15:15:03.307Z,2.83
2022-11-28T15:17:39.064Z,3.10
2022-11-28T15:20:22.047Z,3.00
2022-11-28T15:22:59.437Z,3.20
2022-11-28T15:25:42.768Z,3.35
2022-11-28T15:28:28.836Z,3.20
2022-11-28T15:31:05.515Z,3.60
2022-11-28T15:33:49.407Z,3.03
2022-11-28T15:36:38.075Z,3.35
2022-11-28T15:39:30.874Z,3.50
2022-11-28T15:42:26.453Z,3.30
2022-11-28T15:45:06.398Z,2.90
2022-11-28T15:47:35.816Z,2.92
2022-11-28T15:50:16.023Z,3.63
2022-11-28T15:52:54.555Z,3.28
2022-11-28T15:55:24.569Z,3.58
2022-11-28T15:57:53.787Z,3.08
2022-11-28T16:00:35.049Z,3.33
2022-11-28T16:03:10.202Z,3.70
2022-11-28T16:05:40.512Z,3.10
2022-11-28T16:08:32.851Z,3.67
2022-11-28T16:11:17.460Z,4.28
2022-11-28T16:14:04.416Z,3.47
2022-11-28T16:16:59.662Z,3.38
2022-11-28T16:19:39.724Z,3.58
2022-11-28T16:22:24.014Z,3.50
2022-11-28T16:25:13.843Z,4.25
2022-11-28T16:27:57.421Z,3.65
2022-11-28T16:31:00.469Z,4.00
2022-11-28T16:33:44.363Z,3.67
2022-11-28T16:36:24.330Z,3.88
2022-11-28T16:39:09.351Z,3.45
2022-11-28T16:41:40.718Z,3.75
2022-11-28T16:44:22.979Z,3.60
2022-11-28T16:46:58.696Z,3.75
2022-11-28T16:50:01.625Z,3.72
2022-11-28T16:55:59.521Z,3.30
2022-11-28T16:58:32.271Z,3.30
2022-11-28T17:01:14.543Z,3.95
2022-11-28T17:03:58.075Z,4.03
2022-11-28T17:06:41.557Z,4.10
2022-11-28T17:09:34.355Z,3.63
2022-11-28T17:12:24.204Z,4.00
2022-11-28T17:15:04.340Z,3.83
2022-11-28T17:17:41.917Z,3.85
2022-11-28T17:20:18.077Z,3.95
2022-11-28T17:22:57.090Z,4.03
2022-11-28T17:25:30.908Z,4.43
2022-11-28T17:28:06.743Z,4.30
2022-11-28T17:30:56.359Z,4.22
2022-11-28T17:33:43.234Z,5.05
2022-11-28T17:36:25.278Z,4.18
2022-11-28T17:39:08.865Z,3.63
2022-11-28T17:41:57.213Z,4.70
2022-11-28T17:44:50.019Z,5.20
2022-11-28T17:47:29.358Z,4.53
2022-11-28T17:50:10.265Z,4.53
2022-11-28T17:52:48.681Z,4.90
2022-11-28T17:55:27.757Z,5.07
2022-11-28T17:58:04.245Z,4.93
2022-11-28T18:00:34.807Z,5.50
2022-11-28T18:03:06.673Z,5.05
2022-11-28T18:05:42.579Z,5.45
2022-11-28T18:08:27.376Z,5.28
2022-11-28T18:11:13.034Z,5.53
2022-11-28T18:13:52.658Z,7.72
2022-11-28T18:16:29.877Z,6.72
2022-11-28T18:19:08.282Z,6.47
2022-11-28T18:21:39.986Z,6.97
2022-11-28T18:24:13.705Z,6.72
2022-11-28T18:26:54.093Z,7.30
2022-11-28T18:29:28.513Z,6.45
2022-11-28T18:32:04.561Z,7.72
2022-11-28T18:34:40.470Z,7.88
2022-11-28T18:37:20.288Z,7.90
2022-11-28T18:39:58.072Z,8.20
2022-11-28T18:42:35.575Z,7.18
2022-11-28T18:45:12.196Z,9.30
2022-11-28T18:47:46.041Z,7.57
2022-11-28T18:50:26.200Z,7.82
2022-11-28T18:53:00.085Z,7.07
2022-11-28T18:55:35.473Z,6.85
2022-11-28T18:58:11.187Z,6.32
2022-11-28T19:00:48.254Z,7.05
2022-11-28T19:03:22.692Z,6.03
2022-11-28T19:05:56.479Z,5.78
2022-11-28T19:08:28.922Z,6.32
2022-11-28T19:11:09.228Z,5.93
2022-11-28T19:13:47.955Z,6.18
2022-11-28T19:16:28.822Z,6.68
2022-11-28T19:19:07.081Z,6.47
2022-11-28T19:21:51.993Z,6.28
2022-11-28T19:24:24.802Z,6.28
2022-11-28T19:27:00.088Z,5.63
2022-11-28T19:29:38.249Z,5.95
2022-11-28T19:32:10.762Z,6.25
2022-11-28T19:34:43.273Z,5.72
2022-11-28T19:37:19.416Z,5.28
2022-11-28T19:40:02.180Z,5.68
2022-11-28T19:42:41.534Z,5.57
2022-11-28T19:45:19.558Z,7.63
2022-11-28T19:47:52.590Z,6.72
2022-11-28T19:50:31.527Z,6.57
2022-11-28T19:53:04.244Z,6.57
2022-11-28T19:55:40.419Z,5.18
2022-11-28T19:58:24.091Z,5.85
2022-11-28T20:01:08.298Z,5.40
2022-11-28T20:03:45.469Z,5.32
2022-11-28T20:06:18.344Z,6.07
2022-11-28T20:08:51.168Z,5.65
2022-11-28T20:11:31.750Z,5.38
2022-11-28T20:14:09.185Z,5.15
2022-11-28T20:16:48.221Z,5.20
2022-11-28T20:19:23.919Z,4.97
2022-11-28T20:21:59.671Z,6.57
2022-11-28T20:24:37.182Z,5.68
2022-11-28T20:27:08.927Z,6.95
2022-11-28T20:29:45.927Z,6.15
2022-11-28T20:32:19.204Z,5.32
2022-11-28T20:34:51.203Z,4.50
2022-11-28T20:37:25.886Z,6.55
2022-11-28T20:39:58.107Z,5.95
2022-11-28T20:42:27.359Z,5.43
2022-11-28T20:44:59.512Z,6.70
2022-11-28T20:47:35.228Z,6.22
2022-11-28T20:50:06.255Z,5.10
2022-11-28T20:52:40.548Z,6.32
2022-11-28T20:55:14.634Z,6.32
2022-11-28T20:57:52.554Z,5.43
2022-11-28T21:00:26.710Z,6.80
2022-11-28T21:03:00.879Z,6.22
2022-11-28T21:05:31.373Z,5.53
2022-11-28T21:08:04.232Z,5.72
2022-11-28T21:10:37.826Z,5.40
2022-11-28T21:13:14.977Z,5.43
2022-11-28T21:15:51.091Z,6.53
2022-11-28T21:18:23.232Z,5.50
2022-11-28T21:21:00.967Z,4.53
2022-11-28T21:23:39.502Z,4.70
2022-11-28T21:26:15.593Z,5.05
2022-11-28T21:28:49.420Z,4.85
2022-11-28T21:31:26.265Z,4.75
2022-11-28T21:34:06.901Z,6.00
2022-11-28T21:36:39.923Z,5.00
2022-11-28T21:39:19.330Z,5.18
2022-11-28T21:41:57.383Z,5.38
2022-11-28T21:44:34.212Z,5.03
2022-11-28T21:47:09.406Z,4.53
2022-11-28T21:49:45.475Z,5.10
2022-11-28T21:52:20.679Z,4.53
2022-11-28T21:54:53.947Z,4.95
2022-11-28T21:57:29.059Z,5.00
2022-11-28T22:00:05.315Z,4.75
2022-11-28T22:02:51.396Z,4.90
2022-11-28T22:05:28.397Z,5.15
2022-11-28T22:08:01.585Z,4.72
2022-11-28T22:10:41.048Z,4.25
2022-11-28T22:13:17.973Z,4.85
2022-11-28T22:15:53.332Z,4.35
2022-11-28T22:18:32.723Z,4.63
2022-11-28T22:21:49.937Z,4.65
2022-11-28T22:24:10.115Z,4.70
2022-11-28T22:26:45.792Z,4.90
2022-11-28T22:29:25.044Z,4.80
2022-11-28T22:32:00.045Z,4.72
2022-11-28T22:34:42.148Z,4.90
2022-11-28T22:37:18.282Z,4.70
2022-11-28T22:39:54.915Z,4.72
2022-11-28T22:42:29.998Z,5.40
2022-11-28T22:45:06.789Z,4.97
2022-11-28T22:47:38.956Z,5.57
2022-11-28T22:50:14.765Z,5.40
2022-11-28T22:52:52.841Z,4.55
2022-11-28T22:55:26.635Z,5.05
2022-11-28T22:58:02.690Z,4.85
2022-11-28T23:00:45.661Z,5.00
2022-11-28T23:03:28.712Z,5.00
2022-11-28T23:06:11.158Z,4.45
2022-11-28T23:08:49.551Z,5.43
2022-11-28T23:11:26.645Z,5.63
2022-11-28T23:14:04.844Z,5.50
2022-11-28T23:16:41.862Z,6.35
2022-11-28T23:19:18.262Z,5.50
2022-11-28T23:21:53.107Z,5.95
2022-11-28T23:24:34.105Z,5.60
2022-11-28T23:27:06.445Z,6.10
2022-11-28T23:29:46.797Z,6.00
2022-11-28T23:32:23.197Z,5.63
2022-11-28T23:34:56.764Z,5.38
2022-11-28T23:37:27.695Z,5.57
2022-11-28T23:40:03.335Z,5.38
2022-11-28T23:42:35.642Z,5.43
2022-11-28T23:45:12.811Z,5.45
2022-11-28T23:47:43.442Z,5.15
2022-11-28T23:50:23.413Z,5.45
2022-11-28T23:52:57.775Z,5.32
2022-11-28T23:55:27.727Z,5.55
2022-11-28T23:57:57.279Z,5.40
